sensor_id;sensor_type;location;lat;lon;timestamp;pressure;altitude;pressure_sealevel;temperature;humidity
26376;BME280;30544;42.196;24.336;2023-02-17T00:01:10;100154.47;;;2.05;73.96
26376;BME280;30544;42.196;24.336;2023-02-17T00:03:38;100148.13;;;2.04;74.20
26376;BME280;30544;42.196;24.336;2023-02-17T00:06:06;100136.66;;;1.93;74.73
26376;BME280;30544;42.196;24.336;2023-02-17T00:08:33;100145.56;;;2.03;74.70
26376;BME280;30544;42.196;24.336;2023-02-17T00:11:00;100148.44;;;2.01;75.36
26376;BME280;30544;42.196;24.336;2023-02-17T00:13:27;100130.13;;;2.18;74.15
26376;BME280;30544;42.196;24.336;2023-02-17T00:15:54;100132.53;;;1.97;75.04
26376;BME280;30544;42.196;24.336;2023-02-17T00:18:22;100129.66;;;1.90;75.40
26376;BME280;30544;42.196;24.336;2023-02-17T00:20:49;100120.75;;;2.04;74.75
26376;BME280;30544;42.196;24.336;2023-02-17T00:23:16;100124.53;;;2.03;74.97
26376;BME280;30544;42.196;24.336;2023-02-17T00:25:43;100120.06;;;1.94;74.24
26376;BME280;30544;42.196;24.336;2023-02-17T00:28:10;100111.69;;;1.71;75.29
26376;BME280;30544;42.196;24.336;2023-02-17T00:30:37;100117.66;;;1.75;75.12
26376;BME280;30544;42.196;24.336;2023-02-17T00:33:04;100116.97;;;1.73;74.82
26376;BME280;30544;42.196;24.336;2023-02-17T00:35:32;100116.97;;;1.81;75.22
26376;BME280;30544;42.196;24.336;2023-02-17T00:37:59;100110.97;;;1.61;74.91
26376;BME280;30544;42.196;24.336;2023-02-17T00:40:26;100101.91;;;1.61;74.79
26376;BME280;30544;42.196;24.336;2023-02-17T00:42:53;100107.19;;;1.38;75.06
26376;BME280;30544;42.196;24.336;2023-02-17T00:45:20;100099.47;;;1.33;75.54
26376;BME280;30544;42.196;24.336;2023-02-17T00:47:47;100096.75;;;1.49;75.13
26376;BME280;30544;42.196;24.336;2023-02-17T00:50:13;100091.81;;;1.45;76.20
26376;BME280;30544;42.196;24.336;2023-02-17T00:52:42;100095.41;;;1.54;75.78
26376;BME280;30544;42.196;24.336;2023-02-17T00:55:08;100087.53;;;1.50;75.56
26376;BME280;30544;42.196;24.336;2023-02-17T00:57:35;100085.47;;;1.44;76.08
26376;BME280;30544;42.196;24.336;2023-02-17T01:00:04;100086.69;;;1.50;75.32
26376;BME280;30544;42.196;24.336;2023-02-17T01:02:32;100082.75;;;1.44;75.65
26376;BME280;30544;42.196;24.336;2023-02-17T01:04:59;100071.81;;;1.61;74.84
26376;BME280;30544;42.196;24.336;2023-02-17T01:07:26;100079.31;;;1.50;74.81
26376;BME280;30544;42.196;24.336;2023-02-17T01:09:54;100061.53;;;1.30;75.28
26376;BME280;30544;42.196;24.336;2023-02-17T01:12:21;100056.56;;;1.34;76.11
26376;BME280;30544;42.196;24.336;2023-02-17T01:14:48;100067.72;;;1.40;76.13
26376;BME280;30544;42.196;24.336;2023-02-17T01:17:14;100065.63;;;1.26;75.68
26376;BME280;30544;42.196;24.336;2023-02-17T01:19:41;100067.16;;;1.29;75.45
26376;BME280;30544;42.196;24.336;2023-02-17T01:22:08;100063.25;;;1.39;75.39
26376;BME280;30544;42.196;24.336;2023-02-17T01:24:35;100059.84;;;1.37;75.83
26376;BME280;30544;42.196;24.336;2023-02-17T01:27:04;100047.00;;;1.22;76.15
26376;BME280;30544;42.196;24.336;2023-02-17T01:29:30;100047.53;;;1.25;75.79
26376;BME280;30544;42.196;24.336;2023-02-17T01:31:57;100044.44;;;1.28;75.83
26376;BME280;30544;42.196;24.336;2023-02-17T01:34:26;100038.13;;;1.19;75.77
26376;BME280;30544;42.196;24.336;2023-02-17T01:36:53;100029.78;;;1.37;75.91
26376;BME280;30544;42.196;24.336;2023-02-17T01:39:19;100035.56;;;1.18;77.12
26376;BME280;30544;42.196;24.336;2023-02-17T01:41:46;100033.16;;;1.23;76.95
26376;BME280;30544;42.196;24.336;2023-02-17T01:44:17;100035.56;;;1.34;76.99
26376;BME280;30544;42.196;24.336;2023-02-17T01:46:46;100037.59;;;1.32;76.89
26376;BME280;30544;42.196;24.336;2023-02-17T01:49:20;100041.34;;;1.15;76.97
26376;BME280;30544;42.196;24.336;2023-02-17T01:51:52;100025.66;;;1.25;76.18
26376;BME280;30544;42.196;24.336;2023-02-17T01:54:24;100018.47;;;1.24;77.01
26376;BME280;30544;42.196;24.336;2023-02-17T01:56:54;100032.13;;;1.16;77.43
26376;BME280;30544;42.196;24.336;2023-02-17T01:59:24;100021.03;;;1.26;76.84
26376;BME280;30544;42.196;24.336;2023-02-17T02:01:54;100027.34;;;1.26;77.19
26376;BME280;30544;42.196;24.336;2023-02-17T02:04:26;100017.44;;;1.25;76.71
26376;BME280;30544;42.196;24.336;2023-02-17T02:06:54;100019.00;;;1.28;77.06
26376;BME280;30544;42.196;24.336;2023-02-17T02:09:25;100025.66;;;1.25;77.11
26376;BME280;30544;42.196;24.336;2023-02-17T02:11:55;100029.25;;;1.26;76.27
26376;BME280;30544;42.196;24.336;2023-02-17T02:14:23;100023.06;;;1.07;77.21
26376;BME280;30544;42.196;24.336;2023-02-17T02:16:53;100024.94;;;1.15;77.79
26376;BME280;30544;42.196;24.336;2023-02-17T02:19:43;100014.56;;;1.18;77.04
26376;BME280;30544;42.196;24.336;2023-02-17T02:22:24;100014.38;;;1.20;77.41
26376;BME280;30544;42.196;24.336;2023-02-17T02:25:05;100014.88;;;1.07;77.87
26376;BME280;30544;42.196;24.336;2023-02-17T02:27:49;100010.25;;;1.16;77.75
26376;BME280;30544;42.196;24.336;2023-02-17T02:30:32;100010.56;;;0.97;76.96
26376;BME280;30544;42.196;24.336;2023-02-17T02:33:11;100017.09;;;1.04;77.61
26376;BME280;30544;42.196;24.336;2023-02-17T02:35:46;100012.81;;;1.09;77.53
26376;BME280;30544;42.196;24.336;2023-02-17T02:38:20;100009.94;;;1.19;77.26
26376;BME280;30544;42.196;24.336;2023-02-17T02:40:53;100008.03;;;1.11;77.51
26376;BME280;30544;42.196;24.336;2023-02-17T02:43:23;100015.03;;;1.06;77.39
26376;BME280;30544;42.196;24.336;2023-02-17T02:45:50;100015.69;;;1.00;76.94
26376;BME280;30544;42.196;24.336;2023-02-17T02:48:18;100005.06;;;0.80;78.19
26376;BME280;30544;42.196;24.336;2023-02-17T02:50:56;100015.31;;;0.86;77.75
26376;BME280;30544;42.196;24.336;2023-02-17T02:54:02;100017.50;;;0.83;78.72
26376;BME280;30544;42.196;24.336;2023-02-17T02:56:45;100018.91;;;0.87;77.90
26376;BME280;30544;42.196;24.336;2023-02-17T02:59:22;100021.81;;;0.94;77.75
26376;BME280;30544;42.196;24.336;2023-02-17T03:02:03;100025.91;;;0.89;77.70
26376;BME280;30544;42.196;24.336;2023-02-17T03:04:36;100025.41;;;0.86;78.03
26376;BME280;30544;42.196;24.336;2023-02-17T03:07:09;100020.81;;;0.95;77.55
26376;BME280;30544;42.196;24.336;2023-02-17T03:09:37;100025.19;;;0.79;78.09
26376;BME280;30544;42.196;24.336;2023-02-17T03:12:05;100025.91;;;0.89;78.27
26376;BME280;30544;42.196;24.336;2023-02-17T03:14:35;100029.97;;;0.77;78.26
26376;BME280;30544;42.196;24.336;2023-02-17T03:17:03;100020.22;;;0.75;78.29
26376;BME280;30544;42.196;24.336;2023-02-17T03:19:30;100029.78;;;0.79;78.81
26376;BME280;30544;42.196;24.336;2023-02-17T03:22:03;100022.97;;;0.75;78.66
26376;BME280;30544;42.196;24.336;2023-02-17T03:24:31;100010.69;;;0.79;78.42
26376;BME280;30544;42.196;24.336;2023-02-17T03:26:58;99998.56;;;0.73;79.08
26376;BME280;30544;42.196;24.336;2023-02-17T03:29:25;99995.31;;;0.70;78.72
26376;BME280;30544;42.196;24.336;2023-02-17T03:31:52;100001.47;;;0.80;78.78
26376;BME280;30544;42.196;24.336;2023-02-17T03:34:19;100012.81;;;1.01;77.87
26376;BME280;30544;42.196;24.336;2023-02-17T03:36:46;100007.72;;;1.31;76.64
26376;BME280;30544;42.196;24.336;2023-02-17T03:39:14;100012.16;;;1.24;76.15
26376;BME280;30544;42.196;24.336;2023-02-17T03:41:41;100021.69;;;1.11;76.45
26376;BME280;30544;42.196;24.336;2023-02-17T03:44:08;100021.47;;;0.88;77.56
26376;BME280;30544;42.196;24.336;2023-02-17T03:46:37;100017.38;;;1.01;76.66
26376;BME280;30544;42.196;24.336;2023-02-17T03:49:04;100016.66;;;0.74;76.98
26376;BME280;30544;42.196;24.336;2023-02-17T03:51:31;100017.63;;;0.23;77.08
26376;BME280;30544;42.196;24.336;2023-02-17T03:53:58;100027.97;;;-0.15;78.45
26376;BME280;30544;42.196;24.336;2023-02-17T03:56:26;100025.44;;;-0.08;78.79
26376;BME280;30544;42.196;24.336;2023-02-17T03:58:53;100026.91;;;-0.40;80.43
26376;BME280;30544;42.196;24.336;2023-02-17T04:01:20;100029.03;;;-0.08;79.67
26376;BME280;30544;42.196;24.336;2023-02-17T04:03:47;100026.28;;;-0.08;79.64
26376;BME280;30544;42.196;24.336;2023-02-17T04:06:14;100025.63;;;-0.02;79.15
26376;BME280;30544;42.196;24.336;2023-02-17T04:08:41;100030.25;;;-0.02;79.05
26376;BME280;30544;42.196;24.336;2023-02-17T04:11:09;100020.94;;;0.09;78.39
26376;BME280;30544;42.196;24.336;2023-02-17T04:13:37;100023.41;;;-0.06;78.79
26376;BME280;30544;42.196;24.336;2023-02-17T04:16:06;100025.53;;;0.08;78.91
26376;BME280;30544;42.196;24.336;2023-02-17T04:18:34;100029.13;;;0.09;78.41
26376;BME280;30544;42.196;24.336;2023-02-17T04:21:01;100022.06;;;-0.02;79.07
26376;BME280;30544;42.196;24.336;2023-02-17T04:23:28;100024.38;;;-0.15;79.54
26376;BME280;30544;42.196;24.336;2023-02-17T04:25:54;100013.13;;;0.14;79.57
26376;BME280;30544;42.196;24.336;2023-02-17T04:28:21;100014.28;;;0.03;79.33
26376;BME280;30544;42.196;24.336;2023-02-17T04:30:50;100000.09;;;0.34;79.84
26376;BME280;30544;42.196;24.336;2023-02-17T04:33:17;99999.78;;;0.37;78.95
26376;BME280;30544;42.196;24.336;2023-02-17T04:35:45;100002.41;;;0.54;78.63
26376;BME280;30544;42.196;24.336;2023-02-17T04:38:12;100006.69;;;0.57;78.27
26376;BME280;30544;42.196;24.336;2023-02-17T04:40:40;99998.91;;;0.70;78.09
26376;BME280;30544;42.196;24.336;2023-02-17T04:43:07;99999.25;;;0.75;78.15
26376;BME280;30544;42.196;24.336;2023-02-17T04:45:34;99997.56;;;0.90;77.28
26376;BME280;30544;42.196;24.336;2023-02-17T04:48:02;99996.25;;;1.03;76.97
26376;BME280;30544;42.196;24.336;2023-02-17T04:50:29;99997.59;;;1.15;76.25
26376;BME280;30544;42.196;24.336;2023-02-17T04:52:56;99987.03;;;1.20;76.23
26376;BME280;30544;42.196;24.336;2023-02-17T04:55:23;99987.72;;;1.22;76.27
26376;BME280;30544;42.196;24.336;2023-02-17T04:57:50;99992.50;;;1.20;76.13
26376;BME280;30544;42.196;24.336;2023-02-17T05:00:17;99988.75;;;1.21;75.89
26376;BME280;30544;42.196;24.336;2023-02-17T05:02:44;99978.16;;;1.42;75.92
26376;BME280;30544;42.196;24.336;2023-02-17T05:05:12;99999.53;;;1.55;75.25
26376;BME280;30544;42.196;24.336;2023-02-17T05:07:40;99995.94;;;1.38;75.69
26376;BME280;30544;42.196;24.336;2023-02-17T05:10:07;99999.19;;;1.26;75.83
26376;BME280;30544;42.196;24.336;2023-02-17T05:12:34;99999.53;;;1.39;75.55
26376;BME280;30544;42.196;24.336;2023-02-17T05:15:01;99997.81;;;1.38;75.13
26376;BME280;30544;42.196;24.336;2023-02-17T05:17:31;100006.19;;;1.36;75.17
26376;BME280;30544;42.196;24.336;2023-02-17T05:19:58;99993.72;;;1.42;74.96
26376;BME280;30544;42.196;24.336;2023-02-17T05:22:27;99995.94;;;1.38;75.75
26376;BME280;30544;42.196;24.336;2023-02-17T05:24:54;100010.13;;;1.58;75.02
26376;BME280;30544;42.196;24.336;2023-02-17T05:27:20;100004.66;;;1.58;75.34
26376;BME280;30544;42.196;24.336;2023-02-17T05:29:47;100014.41;;;1.61;74.89
26376;BME280;30544;42.196;24.336;2023-02-17T05:32:16;100010.97;;;1.75;74.68
26376;BME280;30544;42.196;24.336;2023-02-17T05:34:43;100009.25;;;1.82;74.26
26376;BME280;30544;42.196;24.336;2023-02-17T05:37:10;100004.28;;;1.94;73.41
26376;BME280;30544;42.196;24.336;2023-02-17T05:39:38;100016.06;;;2.10;72.93
26376;BME280;30544;42.196;24.336;2023-02-17T05:42:05;100024.91;;;2.37;71.31
26376;BME280;30544;42.196;24.336;2023-02-17T05:44:32;100010.34;;;2.36;71.02
26376;BME280;30544;42.196;24.336;2023-02-17T05:46:59;100006.41;;;2.31;72.39
26376;BME280;30544;42.196;24.336;2023-02-17T05:49:26;99999.56;;;2.35;70.39
26376;BME280;30544;42.196;24.336;2023-02-17T05:51:52;99995.63;;;2.37;71.02
26376;BME280;30544;42.196;24.336;2023-02-17T05:54:19;100004.13;;;2.51;68.91
26376;BME280;30544;42.196;24.336;2023-02-17T05:56:47;100008.94;;;2.88;68.56
26376;BME280;30544;42.196;24.336;2023-02-17T05:59:14;100018.88;;;2.89;68.33
26376;BME280;30544;42.196;24.336;2023-02-17T06:01:41;100024.94;;;2.68;67.56
26376;BME280;30544;42.196;24.336;2023-02-17T06:04:08;100015.19;;;3.05;68.12
26376;BME280;30544;42.196;24.336;2023-02-17T06:06:35;100013.38;;;3.20;67.66
26376;BME280;30544;42.196;24.336;2023-02-17T06:09:02;100019.88;;;3.19;67.35
26376;BME280;30544;42.196;24.336;2023-02-17T06:11:29;100028.63;;;3.22;67.86
26376;BME280;30544;42.196;24.336;2023-02-17T06:13:57;100031.84;;;3.49;67.04
26376;BME280;30544;42.196;24.336;2023-02-17T06:16:24;100017.56;;;3.30;67.06
26376;BME280;30544;42.196;24.336;2023-02-17T06:18:52;100026.16;;;3.50;66.20
26376;BME280;30544;42.196;24.336;2023-02-17T06:21:19;100033.53;;;3.50;66.51
26376;BME280;30544;42.196;24.336;2023-02-17T06:23:45;100050.03;;;2.88;67.90
26376;BME280;30544;42.196;24.336;2023-02-17T06:26:12;100051.22;;;2.54;69.13
26376;BME280;30544;42.196;24.336;2023-02-17T06:28:39;100045.38;;;2.57;69.30
26376;BME280;30544;42.196;24.336;2023-02-17T06:31:07;100043.16;;;2.92;68.83
26376;BME280;30544;42.196;24.336;2023-02-17T06:33:34;100037.09;;;2.74;68.72
26376;BME280;30544;42.196;24.336;2023-02-17T06:36:01;100052.13;;;2.86;67.79
26376;BME280;30544;42.196;24.336;2023-02-17T06:38:28;100052.59;;;2.89;67.99
26376;BME280;30544;42.196;24.336;2023-02-17T06:40:55;100058.06;;;2.42;69.16
26376;BME280;30544;42.196;24.336;2023-02-17T06:43:21;100055.16;;;2.91;68.62
26376;BME280;30544;42.196;24.336;2023-02-17T06:45:48;100044.63;;;3.33;67.36
26376;BME280;30544;42.196;24.336;2023-02-17T06:48:16;100044.09;;;3.61;65.85
26376;BME280;30544;42.196;24.336;2023-02-17T06:50:43;100039.00;;;3.58;65.95
26376;BME280;30544;42.196;24.336;2023-02-17T06:53:10;100037.34;;;3.72;64.79
26376;BME280;30544;42.196;24.336;2023-02-17T06:55:37;100035.94;;;3.53;65.32
26376;BME280;30544;42.196;24.336;2023-02-17T06:58:04;100032.28;;;3.60;65.16
26376;BME280;30544;42.196;24.336;2023-02-17T07:00:31;100047.00;;;3.82;65.47
26376;BME280;30544;42.196;24.336;2023-02-17T07:02:58;100051.56;;;4.13;63.68
26376;BME280;30544;42.196;24.336;2023-02-17T07:05:27;100055.78;;;4.38;63.26
26376;BME280;30544;42.196;24.336;2023-02-17T07:07:56;100052.75;;;4.92;61.66
26376;BME280;30544;42.196;24.336;2023-02-17T07:10:23;100049.72;;;4.87;61.23
26376;BME280;30544;42.196;24.336;2023-02-17T07:12:50;100047.22;;;5.07;60.28
26376;BME280;30544;42.196;24.336;2023-02-17T07:15:17;100047.25;;;5.28;60.21
26376;BME280;30544;42.196;24.336;2023-02-17T07:17:44;100061.09;;;5.20;60.79
26376;BME280;30544;42.196;24.336;2023-02-17T07:20:11;100047.97;;;5.73;60.29
26376;BME280;30544;42.196;24.336;2023-02-17T07:22:39;100046.59;;;6.05;58.50
26376;BME280;30544;42.196;24.336;2023-02-17T07:25:07;100046.81;;;6.31;57.70
26376;BME280;30544;42.196;24.336;2023-02-17T07:27:34;100045.78;;;6.67;57.35
26376;BME280;30544;42.196;24.336;2023-02-17T07:30:01;100047.97;;;6.78;56.41
26376;BME280;30544;42.196;24.336;2023-02-17T07:32:29;100048.44;;;6.88;55.37
26376;BME280;30544;42.196;24.336;2023-02-17T07:34:55;100042.00;;;7.16;54.40
26376;BME280;30544;42.196;24.336;2023-02-17T07:37:22;100036.88;;;7.06;53.61
26376;BME280;30544;42.196;24.336;2023-02-17T07:39:50;100031.88;;;7.36;53.07
26376;BME280;30544;42.196;24.336;2023-02-17T07:42:17;100042.28;;;7.34;53.99
26376;BME280;30544;42.196;24.336;2023-02-17T07:44:44;100036.41;;;7.64;53.04
26376;BME280;30544;42.196;24.336;2023-02-17T07:47:11;100037.72;;;7.81;52.50
26376;BME280;30544;42.196;24.336;2023-02-17T07:49:37;100029.03;;;7.77;52.73
26376;BME280;30544;42.196;24.336;2023-02-17T07:52:04;100036.03;;;8.20;51.69
26376;BME280;30544;42.196;24.336;2023-02-17T07:54:31;100030.09;;;8.23;51.10
26376;BME280;30544;42.196;24.336;2023-02-17T07:57:00;100032.25;;;8.47;52.09
26376;BME280;30544;42.196;24.336;2023-02-17T07:59:26;100037.13;;;8.58;51.53
26376;BME280;30544;42.196;24.336;2023-02-17T08:01:53;100033.44;;;8.84;50.72
26376;BME280;30544;42.196;24.336;2023-02-17T08:04:20;100044.91;;;8.94;49.57
26376;BME280;30544;42.196;24.336;2023-02-17T08:06:47;100034.13;;;9.31;48.83
26376;BME280;30544;42.196;24.336;2023-02-17T08:09:14;100048.34;;;9.79;47.89
26376;BME280;30544;42.196;24.336;2023-02-17T08:12:00;100047.38;;;9.99;46.22
26376;BME280;30544;42.196;24.336;2023-02-17T08:14:44;100041.94;;;10.42;45.97
26376;BME280;30544;42.196;24.336;2023-02-17T08:17:11;100033.19;;;10.13;46.13
26376;BME280;30544;42.196;24.336;2023-02-17T08:19:37;100034.53;;;10.79;45.13
26376;BME280;30544;42.196;24.336;2023-02-17T08:22:04;100034.94;;;10.58;44.06
26376;BME280;30544;42.196;24.336;2023-02-17T08:24:31;100035.75;;;10.65;43.55
26376;BME280;30544;42.196;24.336;2023-02-17T08:26:59;100032.50;;;11.23;42.52
26376;BME280;30544;42.196;24.336;2023-02-17T08:29:26;100037.84;;;11.42;42.51
26376;BME280;30544;42.196;24.336;2023-02-17T08:31:53;100029.91;;;11.58;40.60
26376;BME280;30544;42.196;24.336;2023-02-17T08:34:19;100035.69;;;12.04;39.68
26376;BME280;30544;42.196;24.336;2023-02-17T08:36:46;100030.81;;;12.53;39.45
26376;BME280;30544;42.196;24.336;2023-02-17T08:39:15;100024.63;;;12.86;38.76
26376;BME280;30544;42.196;24.336;2023-02-17T08:41:43;100029.69;;;13.01;37.76
26376;BME280;30544;42.196;24.336;2023-02-17T08:44:14;100030.78;;;12.88;36.94
26376;BME280;30544;42.196;24.336;2023-02-17T08:46:42;100033.97;;;12.80;37.32
26376;BME280;30544;42.196;24.336;2023-02-17T08:49:11;100031.75;;;13.06;37.05
26376;BME280;30544;42.196;24.336;2023-02-17T08:51:38;100032.72;;;13.00;37.24
26376;BME280;30544;42.196;24.336;2023-02-17T08:54:07;100029.84;;;12.94;36.89
26376;BME280;30544;42.196;24.336;2023-02-17T08:56:35;100023.75;;;13.21;36.39
26376;BME280;30544;42.196;24.336;2023-02-17T08:59:03;100036.53;;;13.45;36.15
26376;BME280;30544;42.196;24.336;2023-02-17T09:01:31;100032.09;;;13.33;35.88
26376;BME280;30544;42.196;24.336;2023-02-17T09:03:59;100033.19;;;13.20;35.36
26376;BME280;30544;42.196;24.336;2023-02-17T09:06:31;100034.06;;;13.20;34.87
26376;BME280;30544;42.196;24.336;2023-02-17T09:08:59;100037.69;;;13.21;34.45
26376;BME280;30544;42.196;24.336;2023-02-17T09:11:25;100039.44;;;13.39;33.42
26376;BME280;30544;42.196;24.336;2023-02-17T09:13:52;100033.75;;;13.45;32.92
26376;BME280;30544;42.196;24.336;2023-02-17T09:16:19;100037.03;;;13.71;32.98
26376;BME280;30544;42.196;24.336;2023-02-17T09:18:50;100027.00;;;13.70;32.69
26376;BME280;30544;42.196;24.336;2023-02-17T09:21:17;100029.22;;;14.13;32.01
26376;BME280;30544;42.196;24.336;2023-02-17T09:23:44;100022.03;;;14.17;31.68
26376;BME280;30544;42.196;24.336;2023-02-17T09:26:13;100027.69;;;14.22;31.44
26376;BME280;30544;42.196;24.336;2023-02-17T09:28:40;100012.91;;;14.55;31.33
26376;BME280;30544;42.196;24.336;2023-02-17T09:31:09;100023.44;;;14.48;31.06
26376;BME280;30544;42.196;24.336;2023-02-17T09:33:36;100018.41;;;14.84;30.69
26376;BME280;30544;42.196;24.336;2023-02-17T09:36:05;100012.63;;;14.90;30.62
26376;BME280;30544;42.196;24.336;2023-02-17T09:38:32;100017.94;;;14.92;31.32
26376;BME280;30544;42.196;24.336;2023-02-17T09:41:05;100007.44;;;14.99;30.96
26376;BME280;30544;42.196;24.336;2023-02-17T09:43:33;100012.78;;;15.00;30.60
26376;BME280;30544;42.196;24.336;2023-02-17T09:46:05;100013.28;;;14.97;31.11
26376;BME280;30544;42.196;24.336;2023-02-17T09:48:34;100002.97;;;14.98;30.58
26376;BME280;30544;42.196;24.336;2023-02-17T09:51:07;99999.00;;;15.38;30.24
26376;BME280;30544;42.196;24.336;2023-02-17T09:53:39;99988.75;;;15.65;30.34
26376;BME280;30544;42.196;24.336;2023-02-17T09:56:10;99989.84;;;15.91;30.31
26376;BME280;30544;42.196;24.336;2023-02-17T09:58:42;99985.06;;;15.86;29.58
26376;BME280;30544;42.196;24.336;2023-02-17T10:01:17;99987.34;;;16.21;29.65
26376;BME280;30544;42.196;24.336;2023-02-17T10:03:47;99983.88;;;16.41;28.70
26376;BME280;30544;42.196;24.336;2023-02-17T10:06:18;99979.66;;;16.39;29.77
26376;BME280;30544;42.196;24.336;2023-02-17T10:08:52;99976.78;;;16.66;29.29
26376;BME280;30544;42.196;24.336;2023-02-17T10:11:25;99969.59;;;16.75;29.13
26376;BME280;30544;42.196;24.336;2023-02-17T10:13:56;99962.91;;;16.81;28.46
26376;BME280;30544;42.196;24.336;2023-02-17T10:16:27;99958.72;;;16.83;28.01
26376;BME280;30544;42.196;24.336;2023-02-17T10:18:59;99960.06;;;16.76;27.63
26376;BME280;30544;42.196;24.336;2023-02-17T10:21:31;99953.81;;;16.64;28.12
26376;BME280;30544;42.196;24.336;2023-02-17T10:24:00;99947.59;;;16.62;28.27
26376;BME280;30544;42.196;24.336;2023-02-17T10:26:43;99951.00;;;16.64;27.47
26376;BME280;30544;42.196;24.336;2023-02-17T10:29:12;99949.31;;;17.10;27.04
26376;BME280;30544;42.196;24.336;2023-02-17T10:31:44;99945.91;;;16.98;27.46
26376;BME280;30544;42.196;24.336;2023-02-17T10:34:18;99939.00;;;17.21;27.00
26376;BME280;30544;42.196;24.336;2023-02-17T10:36:56;99932.00;;;17.28;27.78
26376;BME280;30544;42.196;24.336;2023-02-17T10:39:36;99930.34;;;17.27;27.11
26376;BME280;30544;42.196;24.336;2023-02-17T10:42:09;99933.47;;;17.41;26.77
26376;BME280;30544;42.196;24.336;2023-02-17T10:44:39;99922.56;;;17.55;26.65
26376;BME280;30544;42.196;24.336;2023-02-17T10:47:08;99922.28;;;17.51;26.76
26376;BME280;30544;42.196;24.336;2023-02-17T10:49:39;99923.50;;;17.86;27.55
26376;BME280;30544;42.196;24.336;2023-02-17T10:52:12;99917.31;;;17.79;27.02
26376;BME280;30544;42.196;24.336;2023-02-17T10:54:43;99913.41;;;17.95;27.25
26376;BME280;30544;42.196;24.336;2023-02-17T10:57:13;99908.06;;;17.73;27.02
26376;BME280;30544;42.196;24.336;2023-02-17T10:59:43;99904.41;;;17.78;26.36
26376;BME280;30544;42.196;24.336;2023-02-17T11:02:17;99897.69;;;18.24;26.46
26376;BME280;30544;42.196;24.336;2023-02-17T11:04:46;99902.16;;;18.30;26.32
26376;BME280;30544;42.196;24.336;2023-02-17T11:07:16;99902.19;;;18.20;26.21
26376;BME280;30544;42.196;24.336;2023-02-17T11:09:45;99899.94;;;17.87;25.93
26376;BME280;30544;42.196;24.336;2023-02-17T11:12:15;99892.94;;;18.15;25.69
26376;BME280;30544;42.196;24.336;2023-02-17T11:14:44;99892.59;;;18.42;25.79
26376;BME280;30544;42.196;24.336;2023-02-17T11:17:15;99896.22;;;18.57;25.02
26376;BME280;30544;42.196;24.336;2023-02-17T11:19:54;99888.69;;;18.27;24.83
26376;BME280;30544;42.196;24.336;2023-02-17T11:22:30;99885.34;;;18.15;24.55
26376;BME280;30544;42.196;24.336;2023-02-17T11:24:59;99878.59;;;18.26;24.86
26376;BME280;30544;42.196;24.336;2023-02-17T11:27:27;99876.91;;;18.36;25.07
26376;BME280;30544;42.196;24.336;2023-02-17T11:30:04;99877.78;;;18.16;24.75
26376;BME280;30544;42.196;24.336;2023-02-17T11:32:31;99875.78;;;18.26;24.71
26376;BME280;30544;42.196;24.336;2023-02-17T11:34:58;99869.06;;;18.07;25.15
26376;BME280;30544;42.196;24.336;2023-02-17T11:37:30;99859.78;;;18.27;24.69
26376;BME280;30544;42.196;24.336;2023-02-17T11:39:59;99846.56;;;18.27;24.43
26376;BME280;30544;42.196;24.336;2023-02-17T11:42:27;99865.06;;;18.69;24.54
26376;BME280;30544;42.196;24.336;2023-02-17T11:44:55;99860.00;;;18.56;23.79
26376;BME280;30544;42.196;24.336;2023-02-17T11:47:28;99859.75;;;18.52;24.04
26376;BME280;30544;42.196;24.336;2023-02-17T11:53:17;99861.69;;;18.57;23.84
26376;BME280;30544;42.196;24.336;2023-02-17T11:55:53;99856.63;;;18.64;23.64
26376;BME280;30544;42.196;24.336;2023-02-17T11:58:32;99863.72;;;18.36;22.86
26376;BME280;30544;42.196;24.336;2023-02-17T12:01:15;99856.88;;;18.78;23.41
26376;BME280;30544;42.196;24.336;2023-02-17T12:03:57;99848.78;;;18.51;22.58
26376;BME280;30544;42.196;24.336;2023-02-17T12:06:37;99839.78;;;18.64;22.03
26376;BME280;30544;42.196;24.336;2023-02-17T12:09:15;99835.47;;;18.92;22.12
26376;BME280;30544;42.196;24.336;2023-02-17T12:11:48;99833.41;;;19.08;21.86
26376;BME280;30544;42.196;24.336;2023-02-17T12:14:38;99833.38;;;19.13;21.46
26376;BME280;30544;42.196;24.336;2023-02-17T12:17:13;99818.88;;;18.90;22.07
26376;BME280;30544;42.196;24.336;2023-02-17T12:19:49;99820.06;;;18.79;22.03
26376;BME280;30544;42.196;24.336;2023-02-17T12:22:25;99821.66;;;18.96;22.16
26376;BME280;30544;42.196;24.336;2023-02-17T12:25:19;99822.50;;;18.96;21.97
26376;BME280;30544;42.196;24.336;2023-02-17T12:27:55;99818.34;;;18.88;22.23
26376;BME280;30544;42.196;24.336;2023-02-17T12:30:35;99817.22;;;18.89;22.38
26376;BME280;30544;42.196;24.336;2023-02-17T12:35:56;99804.28;;;18.88;22.17
26376;BME280;30544;42.196;24.336;2023-02-17T12:38:30;99815.84;;;18.77;22.06
26376;BME280;30544;42.196;24.336;2023-02-17T12:41:03;99811.25;;;19.01;22.55
26376;BME280;30544;42.196;24.336;2023-02-17T12:43:35;99807.47;;;18.72;22.56
26376;BME280;30544;42.196;24.336;2023-02-17T12:46:06;99817.31;;;18.64;22.59
26376;BME280;30544;42.196;24.336;2023-02-17T12:48:37;99806.63;;;18.71;22.57
26376;BME280;30544;42.196;24.336;2023-02-17T12:51:11;99807.31;;;18.97;22.52
26376;BME280;30544;42.196;24.336;2023-02-17T12:53:46;99817.81;;;18.81;22.75
26376;BME280;30544;42.196;24.336;2023-02-17T12:56:51;99819.84;;;19.20;22.54
26376;BME280;30544;42.196;24.336;2023-02-17T12:59:21;99817.88;;;18.66;22.78
26376;BME280;30544;42.196;24.336;2023-02-17T13:01:58;99815.84;;;18.77;22.69
26376;BME280;30544;42.196;24.336;2023-02-17T13:04:27;99809.97;;;18.73;22.33
26376;BME280;30544;42.196;24.336;2023-02-17T13:07:07;99819.00;;;18.65;21.91
26376;BME280;30544;42.196;24.336;2023-02-17T13:09:37;99822.66;;;18.55;21.98